Time;durP1;ratioP1;P1;durP2;ratioP2;P2;SDS_P1;SDS_P2;PMS_P1;PMS_P2;Temp;Humidity;BMP_temperature;BMP_pressure;BME280_temperature;BME280_humidity;BME280_pressure;Samples;Min_cycle;Max_cycle;Signal;HPM_P1;HPM_P2
2023/01/07 00:01:29;0.00;0.00;0.62;0.00;0.00;0.62;1.30;0.70;;;24.30;28.80;;;;;;2248071;61;20387;-65
2023/01/07 00:04:15;0.00;0.00;0.62;0.00;0.00;0.62;1.67;1.10;;;24.30;28.70;;;;;;2247277;61;20791;-68
2023/01/07 00:07:00;0.00;0.00;0.62;0.00;0.00;0.62;1.40;0.93;;;24.30;28.70;;;;;;2248209;61;20363;-65
2023/01/07 00:09:44;0.00;0.00;0.62;0.00;0.00;0.62;1.43;0.80;;;24.30;28.70;;;;;;2248484;61;20368;-64
2023/01/07 00:12:29;0.00;0.00;0.62;0.00;0.00;0.62;1.60;0.90;;;24.30;28.70;;;;;;2248160;61;20471;-64
2023/01/07 00:15:14;0.00;0.00;0.62;0.00;0.00;0.62;1.67;0.90;;;24.40;28.70;;;;;;2248282;61;20364;-62
2023/01/07 00:18:00;0.00;0.00;0.62;0.00;0.00;0.62;1.70;1.07;;;24.40;28.70;;;;;;2248190;61;20891;-62
2023/01/07 00:20:45;0.00;0.00;0.62;0.00;0.00;0.62;1.50;0.80;;;24.40;28.80;;;;;;2248376;61;20414;-62
2023/01/07 00:23:31;0.00;0.00;0.62;0.00;0.00;0.62;1.50;1.00;;;24.40;28.70;;;;;;2248128;61;20427;-62
2023/01/07 00:26:19;0.00;0.00;0.62;0.00;0.00;0.62;1.40;0.80;;;24.40;28.70;;;;;;2248164;61;20368;-62
2023/01/07 00:29:06;0.00;0.00;0.62;0.00;0.00;0.62;1.73;1.10;;;24.40;28.70;;;;;;2248059;61;20411;-62
2023/01/07 00:31:51;0.00;0.00;0.62;0.00;0.00;0.62;1.30;0.73;;;24.40;28.70;;;;;;2247656;61;20786;-62
2023/01/07 00:34:37;0.00;0.00;0.62;0.00;0.00;0.62;2.03;0.90;;;24.40;28.70;;;;;;2248293;61;20781;-62
2023/01/07 00:40:26;0.00;0.00;0.62;0.00;0.00;0.62;1.70;0.97;;;24.40;28.70;;;;;;2247923;61;20509;-63
2023/01/07 00:43:11;0.00;0.00;0.62;0.00;0.00;0.62;1.50;0.90;;;24.40;28.70;;;;;;2248373;61;20392;-62
2023/01/07 00:45:56;0.00;0.00;0.62;0.00;0.00;0.62;1.30;0.87;;;24.40;28.70;;;;;;2248056;61;20379;-62
2023/01/07 00:48:43;0.00;0.00;0.62;0.00;0.00;0.62;1.30;0.80;;;24.40;28.70;;;;;;2247660;61;20363;-60
2023/01/07 00:51:29;0.00;0.00;0.62;0.00;0.00;0.62;1.30;0.80;;;24.40;28.70;;;;;;2248513;61;20382;-62
2023/01/07 00:54:15;0.00;0.00;0.62;0.00;0.00;0.62;1.50;0.90;;;24.40;28.70;;;;;;2248050;61;20891;-62
2023/01/07 00:56:59;0.00;0.00;0.62;0.00;0.00;0.62;2.03;0.90;;;24.40;28.70;;;;;;2248406;61;20855;-62
2023/01/07 00:59:44;0.00;0.00;0.62;0.00;0.00;0.62;1.47;1.00;;;24.40;28.70;;;;;;2248135;61;20363;-62
2023/01/07 01:02:29;0.00;0.00;0.62;0.00;0.00;0.62;1.47;0.87;;;24.40;28.70;;;;;;2247969;61;20963;-64
2023/01/07 01:05:14;0.00;0.00;0.62;0.00;0.00;0.62;1.27;0.80;;;24.40;28.70;;;;;;2248729;61;20395;-62
2023/01/07 01:08:01;0.00;0.00;0.62;0.00;0.00;0.62;1.20;0.63;;;24.40;28.70;;;;;;2248355;61;20387;-65
2023/01/07 01:10:46;0.00;0.00;0.62;0.00;0.00;0.62;1.50;0.80;;;24.40;28.80;;;;;;2247360;61;20387;-66
2023/01/07 01:13:32;0.00;0.00;0.62;0.00;0.00;0.62;1.43;0.77;;;24.40;28.70;;;;;;2247731;61;20600;-66
2023/01/07 01:16:17;0.00;0.00;0.62;0.00;0.00;0.62;1.53;0.87;;;24.40;28.80;;;;;;2247862;61;20375;-61
2023/01/07 01:19:01;0.00;0.00;0.62;0.00;0.00;0.62;1.30;0.70;;;24.40;28.80;;;;;;2248563;61;20415;-63
2023/01/07 01:21:46;0.00;0.00;0.62;0.00;0.00;0.62;1.40;0.80;;;24.40;28.80;;;;;;2248280;61;20380;-65
2023/01/07 01:24:33;0.00;0.00;0.62;0.00;0.00;0.62;1.40;0.80;;;24.50;28.90;;;;;;2247290;61;20372;-64
2023/01/07 01:27:18;0.00;0.00;0.62;0.00;0.00;0.62;1.50;0.87;;;24.40;28.90;;;;;;2248445;61;20372;-62
2023/01/07 01:30:04;0.00;0.00;0.62;0.00;0.00;0.62;1.40;0.90;;;24.50;29.00;;;;;;2248140;61;20372;-60
2023/01/07 01:32:52;0.00;0.00;0.62;0.00;0.00;0.62;1.30;0.73;;;24.50;28.90;;;;;;2247366;61;20414;-60
2023/01/07 01:35:40;0.00;0.00;0.62;0.00;0.00;0.62;2.27;0.80;;;24.50;28.90;;;;;;2247816;61;20367;-62
2023/01/07 01:38:24;0.00;0.00;0.62;0.00;0.00;0.62;1.60;1.00;;;24.50;28.90;;;;;;2247436;61;20363;-61
2023/01/07 01:41:12;0.00;0.00;0.62;0.00;0.00;0.62;1.40;0.90;;;24.50;28.90;;;;;;2247439;61;20387;-61
2023/01/07 01:43:58;0.00;0.00;0.62;0.00;0.00;0.62;1.47;0.83;;;24.50;28.90;;;;;;2247446;61;20927;-63
2023/01/07 01:46:44;0.00;0.00;0.62;0.00;0.00;0.62;1.40;0.70;;;24.50;28.90;;;;;;2247399;61;20423;-58
2023/01/07 01:49:33;0.00;0.00;0.62;0.00;0.00;0.62;1.40;0.70;;;24.50;28.80;;;;;;2247808;61;21167;-62
2023/01/07 01:52:21;0.00;0.00;0.62;0.00;0.00;0.62;1.63;0.90;;;24.50;28.80;;;;;;2247549;61;20451;-61
2023/01/07 01:55:09;0.00;0.00;0.62;0.00;0.00;0.62;1.27;0.73;;;24.50;28.90;;;;;;2247658;61;20403;-61
2023/01/07 01:58:02;0.00;0.00;0.62;0.00;0.00;0.62;1.40;0.80;;;24.50;28.80;;;;;;2248282;61;20379;-61
2023/01/07 02:00:47;0.00;0.00;0.62;0.00;0.00;0.62;1.50;0.90;;;24.50;28.80;;;;;;2247757;61;20402;-61
2023/01/07 02:03:35;0.00;0.00;0.62;0.00;0.00;0.62;1.37;0.80;;;24.50;28.80;;;;;;2247779;61;20411;-62
2023/01/07 02:06:25;0.00;0.00;0.62;0.00;0.00;0.62;1.40;0.80;;;24.50;28.80;;;;;;2248169;61;20363;-61
2023/01/07 02:09:12;0.00;0.00;0.62;0.00;0.00;0.62;1.60;1.10;;;24.50;28.80;;;;;;2247331;61;20407;-61
2023/01/07 02:12:07;0.00;0.00;0.62;0.00;0.00;0.62;1.30;0.73;;;24.50;28.90;;;;;;2247866;61;20864;-65
2023/01/07 02:15:08;0.00;0.00;0.62;0.00;0.00;0.62;1.40;0.80;;;24.50;28.80;;;;;;2247837;61;20829;-74
2023/01/07 02:18:21;0.00;0.00;0.62;0.00;0.00;0.62;1.40;0.80;;;24.50;28.90;;;;;;2247494;61;20407;-68
2023/01/07 02:21:24;0.00;0.00;0.62;0.00;0.00;0.62;2.13;0.70;;;24.50;28.90;;;;;;2247620;61;20407;-69
2023/01/07 02:24:44;0.00;0.00;0.62;0.00;0.00;0.62;1.60;1.07;;;24.50;29.00;;;;;;2247539;61;20852;-68
2023/01/07 02:28:31;0.00;0.00;0.62;0.00;0.00;0.62;1.43;0.90;;;24.60;29.00;;;;;;2247656;61;20379;-66
2023/01/07 02:31:52;0.00;0.00;0.62;0.00;0.00;0.62;1.30;0.70;;;24.50;29.00;;;;;;2246164;61;20461;-67
2023/01/07 02:34:46;0.00;0.00;0.62;0.00;0.00;0.62;1.50;0.93;;;24.50;28.90;;;;;;2247680;61;20418;-67
2023/01/07 02:37:39;0.00;0.00;0.62;0.00;0.00;0.62;1.30;0.70;;;24.50;28.90;;;;;;2247611;61;20447;-67
2023/01/07 02:40:33;0.00;0.00;0.62;0.00;0.00;0.62;1.97;0.90;;;24.50;28.90;;;;;;2247426;61;20815;-66
2023/01/07 02:43:28;0.00;0.00;0.62;0.00;0.00;0.62;1.50;0.90;;;24.50;28.90;;;;;;2476275;53;20400;-66
2023/01/07 02:46:20;0.00;0.00;0.62;0.00;0.00;0.62;1.40;0.70;;;24.40;28.80;;;;;;2243383;61;20801;-66
2023/01/07 02:49:10;0.00;0.00;0.62;0.00;0.00;0.62;1.30;0.80;;;24.40;28.80;;;;;;2243490;61;20364;-67
2023/01/07 02:51:55;0.00;0.00;0.62;0.00;0.00;0.62;2.00;1.07;;;24.40;28.80;;;;;;2243722;61;20393;-72
2023/01/07 02:54:39;0.00;0.00;0.62;0.00;0.00;0.62;1.20;0.70;;;24.40;28.80;;;;;;2243290;61;20401;-66
2023/01/07 02:58:04;0.00;0.00;0.62;0.00;0.00;0.62;1.40;0.80;;;24.40;28.80;;;;;;2243482;61;20359;-66
2023/01/07 03:01:21;0.00;0.00;0.62;0.00;0.00;0.62;1.33;0.73;;;24.40;28.80;;;;;;2243366;61;20797;-66
2023/01/07 03:04:31;0.00;0.00;0.62;0.00;0.00;0.62;1.80;0.90;;;24.40;28.80;;;;;;2243202;61;20439;-66
2023/01/07 03:07:34;0.00;0.00;0.62;0.00;0.00;0.62;1.30;0.70;;;24.30;28.80;;;;;;2243909;61;20460;-66
2023/01/07 03:10:29;0.00;0.00;0.62;0.00;0.00;0.62;1.50;0.87;;;24.30;28.80;;;;;;2243400;61;20364;-70
2023/01/07 03:13:19;0.00;0.00;0.62;0.00;0.00;0.62;1.40;0.80;;;24.30;28.80;;;;;;2242890;61;20396;-66
2023/01/07 03:16:12;0.00;0.00;0.62;0.00;0.00;0.62;1.40;0.83;;;24.30;28.80;;;;;;2243361;61;20895;-66
2023/01/07 03:19:02;0.00;0.00;0.62;0.00;0.00;0.62;1.47;0.97;;;24.30;28.80;;;;;;2243793;61;20416;-65
2023/01/07 03:21:50;0.00;0.00;0.62;0.00;0.00;0.62;1.30;0.90;;;24.20;28.70;;;;;;2244628;61;20436;-66
2023/01/07 03:24:36;0.00;0.00;0.62;0.00;0.00;0.62;1.37;0.90;;;24.20;28.80;;;;;;2244133;61;20396;-69
2023/01/07 03:27:22;0.00;0.00;0.62;0.00;0.00;0.62;1.37;0.70;;;24.20;28.80;;;;;;2243958;61;20827;-67
2023/01/07 03:30:12;0.00;0.00;0.62;0.00;0.00;0.62;1.40;0.80;;;24.20;28.80;;;;;;2244346;61;20364;-67
2023/01/07 03:33:01;0.00;0.00;0.62;0.00;0.00;0.62;1.40;0.80;;;24.10;28.80;;;;;;2244601;61;20372;-67
2023/01/07 03:35:50;0.00;0.00;0.62;0.00;0.00;0.62;1.60;1.10;;;24.10;28.70;;;;;;2243796;61;20361;-67
2023/01/07 03:38:39;0.00;0.00;0.62;0.00;0.00;0.62;1.60;1.00;;;24.10;28.80;;;;;;2244418;61;20840;-67
2023/01/07 03:44:28;0.00;0.00;0.62;0.00;0.00;0.62;1.40;0.83;;;24.10;28.80;;;;;;2243688;61;20963;-67
2023/01/07 03:47:13;0.00;0.00;0.62;0.00;0.00;0.62;1.47;0.90;;;24.10;28.80;;;;;;2243728;61;20369;-69
2023/01/07 03:49:58;0.00;0.00;0.62;0.00;0.00;0.62;1.77;1.03;;;24.10;28.80;;;;;;2244109;61;20364;-67
2023/01/07 03:52:44;0.00;0.00;0.62;0.00;0.00;0.62;1.40;0.80;;;24.00;28.80;;;;;;2243713;61;20379;-67
2023/01/07 03:55:30;0.00;0.00;0.62;0.00;0.00;0.62;1.40;0.70;;;24.00;28.80;;;;;;2243986;61;20356;-71
2023/01/07 03:58:16;0.00;0.00;0.62;0.00;0.00;0.62;1.63;1.00;;;24.00;29.40;;;;;;2244353;61;20408;-65
2023/01/07 04:01:02;0.00;0.00;0.62;0.00;0.00;0.62;1.50;0.70;;;24.00;28.80;;;;;;2243858;61;20391;-65
2023/01/07 04:03:47;0.00;0.00;0.62;0.00;0.00;0.62;1.30;0.90;;;24.00;28.90;;;;;;2243687;61;20388;-65
2023/01/07 04:06:32;0.00;0.00;0.62;0.00;0.00;0.62;1.40;0.90;;;24.00;28.80;;;;;;2244463;61;20469;-66
2023/01/07 04:09:20;0.00;0.00;0.62;0.00;0.00;0.62;3.73;0.90;;;24.00;28.80;;;;;;2243638;61;20364;-66
2023/01/07 04:12:08;0.00;0.00;0.62;0.00;0.00;0.62;1.30;0.80;;;24.00;28.90;;;;;;2244766;61;20916;-65
2023/01/07 04:14:53;0.00;0.00;0.62;0.00;0.00;0.62;1.37;0.80;;;24.00;28.90;;;;;;2244464;61;20392;-65
2023/01/07 04:17:38;0.00;0.00;0.62;0.00;0.00;0.62;1.40;0.80;;;23.90;28.80;;;;;;2244174;61;20360;-65
2023/01/07 04:20:23;0.00;0.00;0.62;0.00;0.00;0.62;1.30;0.80;;;23.90;28.90;;;;;;2244526;61;20419;-66
2023/01/07 04:23:07;0.00;0.00;0.62;0.00;0.00;0.62;1.40;0.80;;;23.90;28.80;;;;;;2243436;61;20365;-65
2023/01/07 04:25:53;0.00;0.00;0.62;0.00;0.00;0.62;1.40;0.70;;;23.90;28.90;;;;;;2243984;61;20792;-66
2023/01/07 04:28:42;0.00;0.00;0.62;0.00;0.00;0.62;1.40;0.80;;;23.90;28.90;;;;;;2243930;61;20400;-66
2023/01/07 04:31:27;0.00;0.00;0.62;0.00;0.00;0.62;1.30;0.70;;;23.90;28.90;;;;;;2243331;61;20400;-65
2023/01/07 04:34:13;0.00;0.00;0.62;0.00;0.00;0.62;1.30;0.70;;;23.90;28.90;;;;;;2243945;61;20849;-66
2023/01/07 04:36:58;0.00;0.00;0.62;0.00;0.00;0.62;1.60;0.80;;;23.80;28.90;;;;;;2243589;61;20462;-65
2023/01/07 04:39:42;0.00;0.00;0.62;0.00;0.00;0.62;1.47;0.80;;;23.80;28.90;;;;;;2244466;61;20364;-66
2023/01/07 04:42:27;0.00;0.00;0.62;0.00;0.00;0.62;1.30;0.90;;;23.80;28.90;;;;;;2243798;61;20778;-66
2023/01/07 04:45:13;0.00;0.00;0.62;0.00;0.00;0.62;1.53;0.70;;;23.80;28.90;;;;;;2243118;61;20392;-65
2023/01/07 04:47:59;0.00;0.00;0.62;0.00;0.00;0.62;1.30;0.80;;;23.80;28.90;;;;;;2244004;61;20416;-65
2023/01/07 04:50:46;0.00;0.00;0.62;0.00;0.00;0.62;1.40;0.80;;;23.80;29.00;;;;;;2243724;61;20407;-66
2023/01/07 04:53:31;0.00;0.00;0.62;0.00;0.00;0.62;1.30;0.70;;;23.70;28.90;;;;;;2244045;61;20364;-67
2023/01/07 04:56:17;0.00;0.00;0.62;0.00;0.00;0.62;1.40;0.80;;;23.70;28.90;;;;;;2244139;61;20361;-66
2023/01/07 04:59:02;0.00;0.00;0.62;0.00;0.00;0.62;1.40;0.80;;;23.70;29.00;;;;;;2242894;61;20364;-66
2023/01/07 05:01:49;0.00;0.00;0.62;0.00;0.00;0.62;1.50;0.80;;;23.70;29.00;;;;;;2242841;61;20435;-67
2023/01/07 05:04:35;0.00;0.00;0.62;0.00;0.00;0.62;1.30;0.80;;;23.70;29.10;;;;;;2243399;61;20432;-68
2023/01/07 05:07:20;0.00;0.00;0.62;0.00;0.00;0.62;1.83;0.93;;;23.70;29.10;;;;;;2243800;61;20972;-66
2023/01/07 05:10:07;0.00;0.00;0.62;0.00;0.00;0.62;1.30;0.70;;;23.70;29.20;;;;;;2243199;61;20496;-68
2023/01/07 05:12:35;0.00;0.00;0.62;0.00;0.00;0.62;1.30;0.70;;;23.60;29.10;;;;;;2243267;61;20383;-66
2023/01/07 05:15:21;0.00;0.00;0.62;0.00;0.00;0.62;1.80;1.07;;;23.60;29.10;;;;;;2244025;61;20909;-67
2023/01/07 05:18:07;0.00;0.00;0.62;0.00;0.00;0.62;1.40;0.80;;;23.60;29.10;;;;;;2243707;61;20453;-67
2023/01/07 05:20:52;0.00;0.00;0.62;0.00;0.00;0.62;1.40;0.90;;;23.60;29.10;;;;;;2243605;61;20917;-67
2023/01/07 05:23:37;0.00;0.00;0.62;0.00;0.00;0.62;1.30;0.80;;;23.60;29.10;;;;;;2243200;61;20473;-66
2023/01/07 05:26:22;0.00;0.00;0.62;0.00;0.00;0.62;1.33;0.73;;;23.60;29.10;;;;;;2243177;61;20368;-67
2023/01/07 05:29:09;0.00;0.00;0.62;0.00;0.00;0.62;1.60;0.80;;;23.60;29.20;;;;;;2244531;61;20445;-67
2023/01/07 05:31:54;0.00;0.00;0.62;0.00;0.00;0.62;1.40;0.93;;;23.60;29.10;;;;;;2244869;61;20989;-67
2023/01/07 05:34:41;0.00;0.00;0.62;0.00;0.00;0.62;1.30;0.70;;;23.60;29.10;;;;;;2247330;61;20359;-67
2023/01/07 05:37:26;0.00;0.00;0.62;0.00;0.00;0.62;1.67;1.07;;;23.50;29.00;;;;;;2248351;61;20372;-67
2023/01/07 05:40:12;0.00;0.00;0.62;0.00;0.00;0.62;1.20;0.70;;;23.50;29.10;;;;;;2247171;61;20900;-67
2023/01/07 05:42:57;0.00;0.00;0.62;0.00;0.00;0.62;1.40;0.80;;;23.50;29.60;;;;;;2247727;61;20507;-67
2023/01/07 05:45:44;0.00;0.00;0.62;0.00;0.00;0.62;2.07;0.80;;;23.50;29.00;;;;;;2247241;61;20780;-67
2023/01/07 05:48:29;0.00;0.00;0.62;0.00;0.00;0.62;1.40;0.77;;;23.50;29.00;;;;;;2247763;61;20383;-66
2023/01/07 05:51:15;0.00;0.00;0.62;0.00;0.00;0.62;1.33;0.70;;;23.50;29.00;;;;;;2248218;61;21216;-66
2023/01/07 05:54:00;0.00;0.00;0.62;0.00;0.00;0.62;1.53;0.80;;;23.50;29.20;;;;;;2247461;61;20963;-67
2023/01/07 05:56:45;0.00;0.00;0.62;0.00;0.00;0.62;1.33;0.70;;;23.50;29.10;;;;;;2247486;61;20367;-67
2023/01/07 05:59:29;0.00;0.00;0.62;0.00;0.00;0.62;1.60;0.90;;;23.40;29.00;;;;;;2248083;61;20375;-68
2023/01/07 06:02:14;0.00;0.00;0.62;0.00;0.00;0.62;1.30;0.80;;;23.40;29.00;;;;;;2247625;61;20560;-66
2023/01/07 06:04:59;0.00;0.00;0.62;0.00;0.00;0.62;1.63;0.80;;;23.40;29.00;;;;;;2247983;61;20386;-66
2023/01/07 06:07:45;0.00;0.00;0.62;0.00;0.00;0.62;1.30;0.80;;;23.40;29.00;;;;;;2247560;61;20900;-67
2023/01/07 06:10:30;0.00;0.00;0.62;0.00;0.00;0.62;1.40;0.83;;;23.40;29.00;;;;;;2247939;61;20368;-68
2023/01/07 06:13:15;0.00;0.00;0.62;0.00;0.00;0.62;1.50;0.80;;;23.30;28.90;;;;;;2248160;61;20419;-68
2023/01/07 06:16:01;0.00;0.00;0.62;0.00;0.00;0.62;1.30;0.80;;;23.30;28.90;;;;;;2247315;61;20391;-67
2023/01/07 06:18:45;0.00;0.00;0.62;0.00;0.00;0.62;1.60;1.03;;;23.30;28.90;;;;;;2248005;61;20423;-67
2023/01/07 06:21:30;0.00;0.00;0.62;0.00;0.00;0.62;1.50;0.90;;;23.30;28.90;;;;;;2248406;61;20403;-67
2023/01/07 06:24:20;0.00;0.00;0.62;0.00;0.00;0.62;1.50;0.80;;;23.30;28.90;;;;;;2247149;61;20454;-67
2023/01/07 06:27:04;0.00;0.00;0.62;0.00;0.00;0.62;1.27;0.70;;;23.30;28.90;;;;;;2247546;61;20834;-69
2023/01/07 06:29:49;0.00;0.00;0.62;0.00;0.00;0.62;1.37;0.77;;;23.30;28.90;;;;;;2247732;61;20783;-66
2023/01/07 06:32:37;0.00;0.00;0.62;0.00;0.00;0.62;1.70;1.00;;;23.30;28.90;;;;;;2247009;61;20384;-66
2023/01/07 06:35:22;0.00;0.00;0.62;0.00;0.00;0.62;1.30;0.70;;;23.30;28.90;;;;;;2247810;61;20411;-67
2023/01/07 06:38:06;0.00;0.00;0.62;0.00;0.00;0.62;1.40;0.80;;;23.30;28.90;;;;;;2247026;61;20388;-67
2023/01/07 06:40:53;0.00;0.00;0.62;0.00;0.00;0.62;1.30;0.70;;;23.30;28.90;;;;;;2247896;61;20386;-67
2023/01/07 06:43:37;0.00;0.00;0.62;0.00;0.00;0.62;1.30;0.80;;;23.30;28.90;;;;;;2247880;61;20395;-67
2023/01/07 06:46:22;0.00;0.00;0.62;0.00;0.00;0.62;1.47;0.80;;;23.30;28.90;;;;;;2247399;61;20431;-68
2023/01/07 06:49:07;0.00;0.00;0.62;0.00;0.00;0.62;1.40;0.70;;;23.30;28.90;;;;;;2247966;61;20371;-67
2023/01/07 06:51:52;0.00;0.00;0.62;0.00;0.00;0.62;1.33;0.80;;;23.30;28.90;;;;;;2248266;61;20930;-66
2023/01/07 06:54:37;0.00;0.00;0.62;0.00;0.00;0.62;1.40;0.90;;;23.30;28.90;;;;;;2248574;61;20360;-67
2023/01/07 06:57:23;0.00;0.00;0.62;0.00;0.00;0.62;1.40;0.80;;;23.30;28.90;;;;;;2248826;61;20403;-69
2023/01/07 07:00:09;0.00;0.00;0.62;0.00;0.00;0.62;1.30;0.80;;;23.30;29.40;;;;;;2248943;61;20406;-66
2023/01/07 07:02:54;0.00;0.00;0.62;0.00;0.00;0.62;1.30;0.80;;;23.30;28.90;;;;;;2248482;61;20390;-65
2023/01/07 07:05:39;0.00;0.00;0.62;0.00;0.00;0.62;1.60;0.80;;;23.30;28.90;;;;;;2248290;61;20360;-65
2023/01/07 07:08:23;0.00;0.00;0.62;0.00;0.00;0.62;1.60;0.90;;;23.30;28.90;;;;;;2248005;61;21199;-66
2023/01/07 07:11:08;0.00;0.00;0.62;0.00;0.00;0.62;2.17;0.97;;;23.20;28.80;;;;;;2248152;61;20402;-63
2023/01/07 07:13:54;0.00;0.00;0.62;0.00;0.00;0.62;1.40;0.70;;;23.20;28.90;;;;;;2248733;61;20367;-58
2023/01/07 07:16:39;0.00;0.00;0.62;0.00;0.00;0.62;1.43;0.90;;;23.20;28.80;;;;;;2248967;61;20483;-67
2023/01/07 07:19:23;0.00;0.00;0.62;0.00;0.00;0.62;1.40;0.83;;;23.20;28.80;;;;;;2248615;61;20411;-65
2023/01/07 07:22:08;0.00;0.00;0.62;0.00;0.00;0.62;1.40;0.90;;;23.20;28.80;;;;;;2248033;61;20419;-65
2023/01/07 07:24:53;0.00;0.00;0.62;0.00;0.00;0.62;2.80;1.30;;;23.10;28.80;;;;;;2248130;61;20419;-66
2023/01/07 07:27:38;0.00;0.00;0.62;0.00;0.00;0.62;1.90;1.10;;;23.10;28.80;;;;;;2248950;61;20480;-65
2023/01/07 07:30:24;0.00;0.00;0.62;0.00;0.00;0.62;1.90;0.93;;;23.10;28.80;;;;;;2248229;61;20364;-66
2023/01/07 07:33:11;0.00;0.00;0.62;0.00;0.00;0.62;2.40;1.13;;;23.10;28.80;;;;;;2248139;61;20429;-65
2023/01/07 07:35:56;0.00;0.00;0.62;0.00;0.00;0.62;2.13;0.90;;;23.00;28.70;;;;;;2248819;61;20367;-65
2023/01/07 07:38:41;0.00;0.00;0.62;0.00;0.00;0.62;1.70;1.10;;;23.00;28.70;;;;;;2248314;61;20364;-62
2023/01/07 07:41:25;0.00;0.00;0.62;0.00;0.00;0.62;1.70;1.03;;;22.90;28.60;;;;;;2248270;61;20476;-63
2023/01/07 07:44:10;0.00;0.00;0.62;0.00;0.00;0.62;1.60;1.07;;;22.90;28.60;;;;;;2248011;61;20395;-64
2023/01/07 07:46:56;0.00;0.00;0.62;0.00;0.00;0.62;1.60;1.10;;;22.90;28.70;;;;;;2249002;61;20450;-63
2023/01/07 07:49:41;0.00;0.00;0.62;0.00;0.00;0.62;1.90;1.30;;;22.90;28.70;;;;;;2248923;61;20884;-64
2023/01/07 07:52:26;0.00;0.00;0.62;0.00;0.00;0.62;1.63;1.10;;;22.90;28.80;;;;;;2247775;61;20955;-63
2023/01/07 07:55:10;0.00;0.00;0.62;0.00;0.00;0.62;1.70;1.10;;;22.80;28.70;;;;;;2247728;61;20364;-62
2023/01/07 07:57:57;0.00;0.00;0.62;0.00;0.00;0.62;1.87;1.40;;;22.80;28.70;;;;;;2248835;61;20431;-63
2023/01/07 08:00:41;0.00;0.00;0.62;0.00;0.00;0.62;1.73;1.17;;;22.80;28.70;;;;;;2248193;61;20368;-63
2023/01/07 08:03:27;0.00;0.00;0.62;0.00;0.00;0.62;1.67;1.23;;;22.70;28.50;;;;;;2247905;61;20380;-61
2023/01/07 08:06:12;0.00;0.00;0.62;0.00;0.00;0.62;1.53;0.90;;;22.70;28.70;;;;;;2248065;61;20651;-60
2023/01/07 08:08:57;0.00;0.00;0.62;0.00;0.00;0.62;1.53;0.90;;;22.70;28.80;;;;;;2248476;61;20395;-61
2023/01/07 08:11:42;0.00;0.00;0.62;0.00;0.00;0.62;1.60;0.97;;;22.70;28.90;;;;;;2248291;61;20933;-61
2023/01/07 08:14:26;0.00;0.00;0.62;0.00;0.00;0.62;1.30;0.83;;;22.80;29.00;;;;;;2248075;61;20367;-59
2023/01/07 08:17:11;0.00;0.00;0.62;0.00;0.00;0.62;1.53;1.00;;;22.80;29.00;;;;;;2248194;61;20371;-58
2023/01/07 08:19:57;0.00;0.00;0.62;0.00;0.00;0.62;1.87;1.00;;;22.80;29.00;;;;;;2248872;61;20946;-60
2023/01/07 08:22:42;0.00;0.00;0.62;0.00;0.00;0.62;1.50;0.93;;;22.80;29.00;;;;;;2247319;61;20558;-58
2023/01/07 08:25:27;0.00;0.00;0.62;0.00;0.00;0.62;1.30;0.80;;;22.90;29.10;;;;;;2248045;61;20403;-62
2023/01/07 08:28:12;0.00;0.00;0.62;0.00;0.00;0.62;1.40;0.80;;;22.90;29.10;;;;;;2247979;61;20363;-61
2023/01/07 08:31:00;0.00;0.00;0.62;0.00;0.00;0.62;1.30;0.80;;;22.90;29.00;;;;;;2248253;61;20391;-61
2023/01/07 08:33:44;0.00;0.00;0.62;0.00;0.00;0.62;1.40;0.87;;;22.90;29.00;;;;;;2248241;61;20360;-60
2023/01/07 08:36:30;0.00;0.00;0.62;0.00;0.00;0.62;1.60;0.70;;;22.90;29.00;;;;;;2248031;61;20774;-61
2023/01/07 08:39:15;0.00;0.00;0.62;0.00;0.00;0.62;2.63;0.97;;;23.00;29.00;;;;;;2248055;61;20403;-62
2023/01/07 08:42:00;0.00;0.00;0.62;0.00;0.00;0.62;1.30;0.70;;;23.00;29.00;;;;;;2248404;61;20439;-62
2023/01/07 08:44:44;0.00;0.00;0.62;0.00;0.00;0.62;1.50;0.90;;;23.10;29.00;;;;;;2247543;61;20914;-57
2023/01/07 08:47:29;0.00;0.00;0.62;0.00;0.00;0.62;1.53;1.00;;;23.00;28.90;;;;;;2248171;61;20406;-60
2023/01/07 08:50:14;0.00;0.00;0.62;0.00;0.00;0.62;3.97;0.80;;;23.10;29.00;;;;;;2248427;61;20380;-60
2023/01/07 08:53:01;0.00;0.00;0.62;0.00;0.00;0.62;1.93;1.00;;;23.10;29.50;;;;;;2248295;61;20430;-61
2023/01/07 08:55:46;0.00;0.00;0.62;0.00;0.00;0.62;1.77;0.97;;;23.10;28.90;;;;;;2248290;61;20908;-61
2023/01/07 08:58:30;0.00;0.00;0.62;0.00;0.00;0.62;1.50;0.90;;;23.10;28.90;;;;;;2247672;61;20452;-61
2023/01/07 09:01:15;0.00;0.00;0.62;0.00;0.00;0.62;1.40;0.73;;;23.20;28.90;;;;;;2248171;61;21220;-61
2023/01/07 09:03:59;0.00;0.00;0.62;0.00;0.00;0.62;1.50;1.00;;;23.20;28.80;;;;;;2248422;61;20431;-61
2023/01/07 09:06:44;0.00;0.00;0.62;0.00;0.00;0.62;1.50;0.83;;;23.20;28.80;;;;;;2247532;61;20359;-59
2023/01/07 09:09:30;0.00;0.00;0.62;0.00;0.00;0.62;2.53;1.10;;;23.20;28.90;;;;;;2248012;61;20793;-62
2023/01/07 09:12:15;0.00;0.00;0.62;0.00;0.00;0.62;1.40;0.80;;;23.30;28.90;;;;;;2248234;61;20448;-62
2023/01/07 09:15:00;0.00;0.00;0.62;0.00;0.00;0.62;1.60;0.80;;;23.30;28.90;;;;;;2247664;61;20383;-62
2023/01/07 09:17:45;0.00;0.00;0.62;0.00;0.00;0.62;2.03;0.80;;;23.30;28.90;;;;;;2248155;61;20787;-62
2023/01/07 09:20:30;0.00;0.00;0.62;0.00;0.00;0.62;1.40;0.90;;;23.30;28.90;;;;;;2247926;61;20418;-62
2023/01/07 09:23:14;0.00;0.00;0.62;0.00;0.00;0.62;1.63;0.70;;;23.40;29.00;;;;;;2247693;61;20368;-60
2023/01/07 09:26:00;0.00;0.00;0.62;0.00;0.00;0.62;1.43;0.90;;;23.30;28.90;;;;;;2248479;61;20414;-61
2023/01/07 09:28:45;0.00;0.00;0.62;0.00;0.00;0.62;1.50;0.80;;;23.40;29.00;;;;;;2247690;61;20775;-62
2023/01/07 09:31:30;0.00;0.00;0.62;0.00;0.00;0.62;1.30;0.70;;;23.40;29.00;;;;;;2247876;61;20438;-61
2023/01/07 09:34:14;0.00;0.00;0.62;0.00;0.00;0.62;1.60;0.80;;;23.40;29.00;;;;;;2248194;61;20444;-61
2023/01/07 09:36:59;0.00;0.00;0.62;0.00;0.00;0.62;1.40;0.80;;;23.40;29.00;;;;;;2247838;61;20415;-61
2023/01/07 09:39:43;0.00;0.00;0.62;0.00;0.00;0.62;1.90;0.70;;;23.40;29.00;;;;;;2247992;61;20375;-60
2023/01/07 09:42:38;0.00;0.00;0.62;0.00;0.00;0.62;1.60;0.80;;;23.40;29.50;;;;;;2247619;61;20399;-62
2023/01/07 09:45:25;0.00;0.00;0.62;0.00;0.00;0.62;1.30;0.77;;;23.40;29.00;;;;;;2247427;61;20431;-59
2023/01/07 09:48:20;0.00;0.00;0.62;0.00;0.00;0.62;1.40;0.73;;;23.40;29.00;;;;;;2248346;61;20379;-60
2023/01/07 09:51:13;0.00;0.00;0.62;0.00;0.00;0.62;1.60;0.87;;;23.50;29.00;;;;;;2247440;61;20387;-61
2023/01/07 09:54:04;0.00;0.00;0.62;0.00;0.00;0.62;1.30;0.70;;;23.50;29.10;;;;;;2247781;61;20415;-61
2023/01/07 09:56:49;0.00;0.00;0.62;0.00;0.00;0.62;1.47;0.83;;;23.50;29.00;;;;;;2248154;61;20426;-61
2023/01/07 09:59:35;0.00;0.00;0.62;0.00;0.00;0.62;1.40;0.70;;;23.50;29.60;;;;;;2248158;61;20774;-62
2023/01/07 10:02:36;0.00;0.00;0.62;0.00;0.00;0.62;1.40;0.80;;;23.50;29.00;;;;;;2248026;61;20416;-60
2023/01/07 10:05:33;0.00;0.00;0.62;0.00;0.00;0.62;1.30;0.70;;;23.50;29.00;;;;;;2247564;61;20527;-62
2023/01/07 10:08:30;0.00;0.00;0.62;0.00;0.00;0.62;1.40;0.80;;;23.50;28.90;;;;;;2247792;61;20923;-62
2023/01/07 10:11:31;0.00;0.00;0.62;0.00;0.00;0.62;1.40;0.80;;;23.50;28.90;;;;;;2248118;61;20438;-62
2023/01/07 10:14:52;0.00;0.00;0.62;0.00;0.00;0.62;1.50;0.80;;;23.50;28.90;;;;;;2247647;61;20368;-62
2023/01/07 10:18:04;0.00;0.00;0.62;0.00;0.00;0.62;1.30;0.70;;;23.50;28.90;;;;;;2248251;61;21106;-62
2023/01/07 10:20:58;0.00;0.00;0.62;0.00;0.00;0.62;1.30;0.70;;;23.60;28.90;;;;;;2247276;61;20406;-61
2023/01/07 10:23:51;0.00;0.00;0.62;0.00;0.00;0.62;1.30;0.70;;;23.60;28.90;;;;;;2247479;61;20372;-62
2023/01/07 10:26:40;0.00;0.00;0.62;0.00;0.00;0.62;1.40;0.70;;;23.60;28.90;;;;;;2247921;61;20367;-60
2023/01/07 10:29:34;0.00;0.00;0.62;0.00;0.00;0.62;1.23;0.67;;;23.60;28.90;;;;;;2248738;61;20383;-62
2023/01/07 10:32:27;0.00;0.00;0.62;0.00;0.00;0.62;1.53;0.73;;;23.60;28.90;;;;;;2248705;61;20383;-62
2023/01/07 10:35:17;0.00;0.00;0.62;0.00;0.00;0.62;1.30;0.70;;;23.60;28.90;;;;;;2248047;61;20959;-60
2023/01/07 10:38:04;0.00;0.00;0.62;0.00;0.00;0.62;1.40;0.70;;;23.60;28.90;;;;;;2248713;61;20367;-63
2023/01/07 10:40:55;0.00;0.00;0.62;0.00;0.00;0.62;1.30;0.70;;;23.60;28.80;;;;;;2255491;40;20458;-62
2023/01/07 10:43:59;0.00;0.00;0.62;0.00;0.00;0.62;1.23;0.63;;;23.60;28.80;;;;;;2253164;61;20383;-62
2023/01/07 10:46:58;0.00;0.00;0.62;0.00;0.00;0.62;1.27;0.70;;;23.60;28.80;;;;;;2252505;61;20769;-62
2023/01/07 10:50:05;0.00;0.00;0.62;0.00;0.00;0.62;1.63;0.80;;;23.60;28.80;;;;;;2252248;61;20886;-62
2023/01/07 10:52:58;0.00;0.00;0.62;0.00;0.00;0.62;1.30;0.70;;;23.70;28.80;;;;;;2251744;61;20978;-62
2023/01/07 10:55:58;0.00;0.00;0.62;0.00;0.00;0.62;1.40;0.70;;;23.70;28.80;;;;;;2252875;61;20382;-58
2023/01/07 10:58:45;0.00;0.00;0.62;0.00;0.00;0.62;1.43;0.70;;;23.70;28.80;;;;;;2252669;61;20786;-63
2023/01/07 11:01:35;0.00;0.00;0.62;0.00;0.00;0.62;1.20;0.60;;;23.70;28.80;;;;;;2252413;61;20882;-62
2023/01/07 11:04:20;0.00;0.00;0.62;0.00;0.00;0.62;1.43;0.80;;;23.70;28.80;;;;;;2252016;61;20890;-62
2023/01/07 11:07:13;0.00;0.00;0.62;0.00;0.00;0.62;1.37;0.67;;;23.70;28.80;;;;;;2252140;61;20417;-62
2023/01/07 11:10:03;0.00;0.00;0.62;0.00;0.00;0.62;1.30;0.70;;;23.70;28.70;;;;;;2252499;61;20517;-61